createdAt,value
2019-04-06T00:02:25.037Z,37.40
2019-04-06T00:04:53.630Z,37.30
2019-04-06T00:07:22.414Z,36.90
2019-04-06T00:09:51.054Z,37.30
2019-04-06T00:12:19.639Z,36.37
2019-04-06T00:14:48.605Z,36.37
2019-04-06T00:17:17.182Z,34.57
2019-04-06T00:19:45.764Z,35.63
2019-04-06T00:22:14.377Z,34.70
2019-04-06T00:24:42.959Z,31.83
2019-04-06T00:27:11.535Z,31.90
2019-04-06T00:29:40.138Z,33.40
2019-04-06T00:32:13.106Z,31.80
2019-04-06T00:34:41.692Z,33.60
2019-04-06T00:37:11.150Z,33.10
2019-04-06T00:39:39.736Z,30.90
2019-04-06T00:42:08.310Z,31.50
2019-04-06T00:44:37.098Z,31.37
2019-04-06T00:47:05.701Z,30.07
2019-04-06T00:49:34.313Z,30.10
2019-04-06T00:52:03.152Z,28.80
2019-04-06T00:54:31.805Z,31.30
2019-04-06T00:57:00.503Z,29.67
2019-04-06T00:59:29.126Z,29.73
2019-04-06T01:01:57.767Z,29.10
2019-04-06T01:04:26.405Z,27.20
2019-04-06T01:06:55.174Z,26.97
2019-04-06T01:09:23.749Z,27.67
2019-04-06T01:11:52.329Z,25.83
2019-04-06T01:14:21.026Z,27.07
2019-04-06T01:16:49.597Z,25.60
2019-04-06T01:19:18.182Z,25.57
2019-04-06T01:21:46.986Z,27.20
2019-04-06T01:24:15.570Z,23.73
2019-04-06T01:26:44.145Z,25.70
2019-04-06T01:29:12.798Z,25.93
2019-04-06T01:31:41.381Z,27.57
2019-04-06T01:34:09.978Z,23.30
2019-04-06T01:36:38.571Z,22.47
2019-04-06T01:39:07.278Z,25.17
2019-04-06T01:41:35.862Z,24.73
2019-04-06T01:44:04.461Z,24.60
2019-04-06T01:46:33.044Z,23.00
2019-04-06T01:49:01.717Z,24.53
2019-04-06T01:51:30.393Z,25.47
2019-04-06T01:53:59.065Z,24.20
2019-04-06T01:56:27.656Z,25.90
2019-04-06T01:58:56.369Z,25.07
2019-04-06T02:01:26.581Z,26.83
2019-04-06T02:03:55.153Z,24.53
2019-04-06T02:06:24.112Z,26.23
2019-04-06T02:08:52.694Z,25.70
2019-04-06T02:11:21.281Z,27.00
2019-04-06T02:13:49.893Z,26.17
2019-04-06T02:16:18.469Z,25.93
2019-04-06T02:18:47.050Z,24.27
2019-04-06T02:21:15.800Z,22.67
2019-04-06T02:23:44.517Z,23.90
2019-04-06T02:26:13.102Z,25.60
2019-04-06T02:28:41.698Z,24.43
2019-04-06T02:31:17.346Z,24.83
2019-04-06T02:33:51.316Z,24.23
2019-04-06T02:36:24.195Z,24.17
2019-04-06T02:38:54.463Z,26.30
2019-04-06T02:41:24.682Z,24.30
2019-04-06T02:43:53.435Z,23.30
2019-04-06T02:46:22.018Z,26.27
2019-04-06T02:48:50.705Z,25.70
2019-04-06T02:51:19.561Z,24.53
2019-04-06T02:53:48.159Z,24.30
2019-04-06T02:56:16.770Z,25.00
2019-04-06T02:58:45.338Z,25.67
2019-04-06T03:01:14.038Z,24.07
2019-04-06T03:03:43.506Z,25.80
2019-04-06T03:06:12.496Z,24.70
2019-04-06T03:08:41.078Z,26.20
2019-04-06T03:11:09.739Z,25.07
2019-04-06T03:13:38.406Z,24.03
2019-04-06T03:16:06.985Z,24.27
2019-04-06T03:18:35.578Z,25.27
2019-04-06T03:21:04.413Z,25.40
2019-04-06T03:23:33.011Z,25.30
2019-04-06T03:26:01.606Z,24.10
2019-04-06T03:28:30.190Z,24.83
2019-04-06T03:30:59.004Z,24.40
2019-04-06T03:33:28.042Z,24.30
2019-04-06T03:35:57.046Z,23.83
2019-04-06T03:38:25.673Z,24.20
2019-04-06T03:40:54.427Z,23.73
2019-04-06T03:43:23.205Z,25.03
2019-04-06T03:45:51.831Z,23.40
2019-04-06T03:48:20.425Z,23.00
2019-04-06T03:50:49.007Z,23.30
2019-04-06T03:53:17.583Z,24.20
2019-04-06T03:55:46.199Z,23.47
2019-04-06T03:58:14.780Z,22.80
2019-04-06T04:00:43.370Z,24.53
2019-04-06T04:03:12.409Z,24.53
2019-04-06T04:05:41.156Z,22.80
2019-04-06T04:08:09.816Z,22.60
2019-04-06T04:10:40.017Z,22.37
2019-04-06T04:13:08.766Z,22.20
2019-04-06T04:15:37.606Z,23.20
2019-04-06T04:18:06.323Z,23.97
2019-04-06T04:20:34.902Z,24.13
2019-04-06T04:23:03.482Z,22.30
2019-04-06T04:25:32.089Z,23.83
2019-04-06T04:28:00.662Z,21.73
2019-04-06T04:30:33.124Z,23.37
2019-04-06T04:32:59.781Z,24.23
2019-04-06T04:35:28.556Z,25.30
2019-04-06T04:37:57.199Z,25.27
2019-04-06T04:40:25.776Z,23.27
2019-04-06T04:42:54.375Z,22.20
2019-04-06T04:45:22.944Z,22.37
2019-04-06T04:47:51.597Z,23.00
2019-04-06T04:50:20.306Z,24.50
2019-04-06T04:52:49.029Z,22.30
2019-04-06T04:55:17.714Z,22.47
2019-04-06T04:57:46.612Z,23.83
2019-04-06T05:00:15.739Z,22.17
2019-04-06T05:02:44.725Z,22.90
2019-04-06T05:05:13.445Z,24.40
2019-04-06T05:07:42.141Z,24.90
2019-04-06T05:10:11.135Z,23.20
2019-04-06T05:12:40.014Z,23.60
2019-04-06T05:15:14.884Z,23.00
2019-04-06T05:17:43.467Z,24.87
2019-04-06T05:20:12.362Z,23.00
2019-04-06T05:22:41.568Z,23.73
2019-04-06T05:25:10.687Z,25.17
2019-04-06T05:27:46.395Z,23.63
2019-04-06T05:30:10.322Z,23.03
2019-04-06T05:32:38.898Z,23.90
2019-04-06T05:35:07.755Z,23.97
2019-04-06T05:37:36.362Z,23.30
2019-04-06T05:40:05.981Z,23.70
2019-04-06T05:42:34.641Z,22.67
2019-04-06T05:45:03.781Z,24.47
2019-04-06T05:47:32.449Z,22.67
2019-04-06T05:50:01.050Z,25.10
2019-04-06T05:52:29.643Z,25.50
2019-04-06T05:54:58.443Z,24.43
2019-04-06T05:57:27.173Z,23.30
2019-04-06T05:59:55.934Z,22.33
2019-04-06T06:02:24.618Z,23.87
2019-04-06T06:04:53.200Z,24.57
2019-04-06T06:07:21.806Z,24.47
2019-04-06T06:09:50.389Z,23.20
2019-04-06T06:12:18.973Z,25.17
2019-04-06T06:14:47.590Z,24.23
2019-04-06T06:17:16.277Z,26.67
2019-04-06T06:19:44.850Z,25.97
2019-04-06T06:22:13.503Z,25.10
2019-04-06T06:24:42.122Z,24.63
2019-04-06T06:27:10.990Z,25.20
2019-04-06T06:29:39.602Z,25.00
2019-04-06T06:32:08.224Z,23.90
2019-04-06T06:34:36.796Z,25.77
2019-04-06T06:37:05.626Z,24.63
2019-04-06T06:39:34.270Z,26.00
2019-04-06T06:42:03.342Z,24.23
2019-04-06T06:44:32.038Z,24.30
2019-04-06T06:47:00.616Z,26.00
2019-04-06T06:49:29.195Z,25.20
2019-04-06T06:51:57.791Z,26.20
2019-04-06T06:54:26.540Z,25.57
2019-04-06T06:56:55.502Z,24.67
2019-04-06T06:59:24.202Z,26.90
2019-04-06T07:01:52.774Z,26.63
2019-04-06T07:04:21.370Z,26.83
2019-04-06T07:06:50.212Z,26.10
2019-04-06T07:09:18.782Z,26.57
2019-04-06T07:11:47.361Z,27.03
2019-04-06T07:14:16.118Z,26.20
2019-04-06T07:16:44.721Z,26.67
2019-04-06T07:19:13.306Z,26.97
2019-04-06T07:21:41.920Z,26.60
2019-04-06T07:24:10.628Z,27.27
2019-04-06T07:26:41.238Z,26.43
2019-04-06T07:29:09.970Z,27.77
2019-04-06T07:31:38.560Z,25.83
2019-04-06T07:34:07.394Z,26.33
2019-04-06T07:36:36.255Z,27.37
2019-04-06T07:39:07.025Z,26.10
2019-04-06T07:41:35.702Z,27.17
2019-04-06T07:44:05.898Z,27.47
2019-04-06T07:46:34.974Z,27.27
2019-04-06T07:49:09.160Z,26.63
2019-04-06T07:51:34.041Z,27.40
2019-04-06T07:54:02.895Z,26.17
2019-04-06T07:56:31.622Z,27.83
2019-04-06T07:59:00.483Z,26.67
2019-04-06T08:01:29.145Z,25.47
2019-04-06T08:03:58.079Z,24.60
2019-04-06T08:06:26.778Z,26.23
2019-04-06T08:08:55.819Z,26.00
2019-04-06T08:11:24.440Z,25.10
2019-04-06T08:13:53.279Z,26.87
2019-04-06T08:16:21.880Z,26.07
2019-04-06T08:18:52.387Z,26.60
2019-04-06T08:21:21.421Z,26.00
2019-04-06T08:23:50.049Z,25.90
2019-04-06T08:26:18.665Z,24.47
2019-04-06T08:28:59.154Z,24.57
2019-04-06T08:31:17.871Z,25.07
2019-04-06T08:33:46.488Z,24.67
2019-04-06T08:36:15.422Z,25.20
2019-04-06T08:38:44.035Z,25.20
2019-04-06T08:41:12.639Z,25.20
2019-04-06T08:43:41.532Z,23.80
2019-04-06T08:46:10.194Z,25.37
2019-04-06T08:48:38.808Z,23.60
2019-04-06T08:51:07.462Z,24.33
2019-04-06T08:53:36.064Z,24.40
2019-04-06T08:56:04.814Z,24.63
2019-04-06T08:58:33.615Z,24.33
2019-04-06T09:01:02.260Z,24.57
2019-04-06T09:03:30.911Z,24.03
2019-04-06T09:05:59.547Z,25.13
2019-04-06T09:08:28.157Z,24.20
2019-04-06T09:10:56.766Z,23.00
2019-04-06T09:13:25.405Z,22.90
2019-04-06T09:15:54.126Z,23.20
2019-04-06T09:18:22.830Z,23.37
2019-04-06T09:20:51.470Z,23.60
2019-04-06T09:23:20.175Z,23.97
2019-04-06T09:25:48.900Z,23.90
2019-04-06T09:28:17.645Z,24.47
2019-04-06T09:30:46.317Z,26.43
2019-04-06T09:33:15.438Z,25.00
2019-04-06T09:35:44.222Z,23.47
2019-04-06T09:38:18.916Z,24.43
2019-04-06T09:40:51.080Z,23.07
2019-04-06T09:43:19.937Z,23.30
2019-04-06T09:45:52.896Z,21.80
2019-04-06T09:48:35.029Z,22.83
2019-04-06T09:51:23.719Z,23.30
2019-04-06T09:54:09.083Z,22.70
2019-04-06T09:56:42.156Z,23.10
2019-04-06T09:59:15.509Z,20.90
2019-04-06T10:01:46.049Z,21.67
2019-04-06T10:04:25.256Z,20.30
2019-04-06T10:06:58.735Z,18.43
2019-04-06T10:09:29.338Z,20.17
2019-04-06T10:11:59.706Z,20.23
2019-04-06T10:14:39.133Z,21.90
2019-04-06T10:17:12.741Z,24.17
2019-04-06T10:19:46.063Z,19.90
2019-04-06T10:22:16.345Z,19.80
2019-04-06T10:24:46.578Z,19.10
2019-04-06T10:27:26.155Z,18.07
2019-04-06T10:29:56.423Z,20.30
2019-04-06T10:32:26.725Z,19.03
2019-04-06T10:35:13.420Z,20.23
2019-04-06T10:37:43.872Z,21.53
2019-04-06T10:40:27.217Z,20.20
2019-04-06T10:43:15.871Z,19.90
2019-04-06T10:45:49.048Z,20.73
2019-04-06T10:48:22.444Z,21.40
2019-04-06T10:50:55.659Z,21.53
2019-04-06T10:53:42.208Z,21.27
2019-04-06T10:56:15.128Z,19.77
2019-04-06T10:58:45.378Z,20.23
2019-04-06T11:01:24.911Z,21.97
2019-04-06T11:03:55.254Z,19.63
2019-04-06T11:06:25.540Z,18.40
2019-04-06T11:08:58.916Z,18.80
2019-04-06T11:11:45.685Z,19.20
2019-04-06T11:14:19.281Z,19.27
2019-04-06T11:16:58.650Z,19.90
2019-04-06T11:19:35.159Z,19.57
2019-04-06T11:22:21.741Z,19.00
2019-04-06T11:24:54.952Z,20.13
2019-04-06T11:27:27.887Z,21.00
2019-04-06T11:29:58.130Z,18.93
2019-04-06T11:32:43.644Z,22.10
2019-04-06T11:35:32.337Z,21.97
2019-04-06T11:38:03.085Z,21.50
2019-04-06T11:40:50.046Z,22.80
2019-04-06T11:43:20.436Z,21.73
2019-04-06T11:45:56.574Z,21.73
2019-04-06T11:48:29.733Z,23.30
2019-04-06T11:51:18.616Z,20.67
2019-04-06T11:53:52.279Z,21.77
2019-04-06T11:56:22.805Z,22.80
2019-04-06T11:58:56.394Z,22.90
2019-04-06T12:01:26.710Z,21.40
2019-04-06T12:04:02.990Z,22.17
2019-04-06T12:06:33.252Z,22.43
2019-04-06T12:09:03.804Z,21.57
2019-04-06T12:11:36.990Z,22.20
2019-04-06T12:14:19.658Z,22.07
2019-04-06T12:17:02.266Z,23.10
2019-04-06T12:19:35.249Z,21.97
2019-04-06T12:22:05.804Z,22.87
2019-04-06T12:24:42.285Z,22.87
2019-04-06T12:27:15.676Z,22.23
2019-04-06T12:29:57.604Z,22.87
2019-04-06T12:32:30.426Z,21.83
2019-04-06T12:35:03.133Z,21.20
2019-04-06T12:37:33.372Z,20.40
2019-04-06T12:40:12.901Z,21.33
2019-04-06T12:42:46.072Z,21.00
2019-04-06T12:45:19.325Z,22.03
2019-04-06T12:48:06.142Z,19.43
2019-04-06T12:50:54.640Z,20.90
2019-04-06T12:53:31.027Z,20.60
2019-04-06T12:56:16.508Z,18.53
2019-04-06T12:59:03.182Z,19.63
2019-04-06T13:01:45.319Z,20.33
2019-04-06T13:04:27.307Z,21.67
2019-04-06T13:07:16.458Z,22.63
2019-04-06T13:10:03.728Z,21.53
2019-04-06T13:12:50.410Z,20.33
2019-04-06T13:15:23.775Z,21.57
2019-04-06T13:18:06.559Z,22.10
2019-04-06T13:20:42.658Z,20.20
2019-04-06T13:23:18.608Z,20.90
2019-04-06T13:25:54.671Z,20.03
2019-04-06T13:28:43.172Z,19.23
2019-04-06T13:31:19.162Z,18.90
2019-04-06T13:33:52.266Z,18.70
2019-04-06T13:36:26.221Z,19.47
2019-04-06T13:38:59.510Z,16.50
2019-04-06T13:41:29.766Z,18.27
2019-04-06T13:44:02.477Z,19.33
2019-04-06T13:46:39.052Z,16.37
2019-04-06T13:49:09.409Z,17.10
2019-04-06T13:51:45.663Z,16.67
2019-04-06T13:54:31.214Z,18.47
2019-04-06T13:57:04.162Z,15.30
2019-04-06T13:59:51.214Z,18.27
2019-04-06T14:02:33.863Z,16.47
2019-04-06T14:05:06.759Z,15.83
2019-04-06T14:07:53.021Z,15.10
2019-04-06T14:10:23.384Z,15.47
2019-04-06T14:12:53.699Z,15.10
2019-04-06T14:15:33.294Z,16.30
2019-04-06T14:18:20.066Z,14.70
2019-04-06T14:21:06.973Z,13.23
2019-04-06T14:23:43.325Z,14.27
2019-04-06T14:26:13.795Z,14.50
2019-04-06T14:28:44.039Z,12.90
2019-04-06T14:31:27.220Z,13.70
2019-04-06T14:33:51.835Z,14.40
2019-04-06T14:36:22.085Z,14.00
2019-04-06T14:39:08.615Z,13.80
2019-04-06T14:41:44.881Z,13.17
2019-04-06T14:44:20.945Z,14.63
2019-04-06T14:47:03.325Z,15.40
2019-04-06T14:49:33.614Z,13.93
2019-04-06T14:52:03.866Z,14.23
2019-04-06T14:54:40.058Z,13.17
2019-04-06T14:57:26.514Z,14.40
2019-04-06T14:59:59.536Z,15.83
2019-04-06T15:02:29.783Z,15.43
2019-04-06T15:05:16.818Z,15.87
2019-04-06T15:07:53.262Z,13.90
2019-04-06T15:10:40.073Z,14.33
2019-04-06T15:13:10.316Z,17.63
2019-04-06T15:15:52.455Z,14.83
2019-04-06T15:18:22.691Z,14.90
2019-04-06T15:21:08.221Z,14.53
2019-04-06T15:23:44.302Z,14.77
2019-04-06T15:26:27.242Z,13.17
2019-04-06T15:28:58.007Z,12.70
2019-04-06T15:31:36.046Z,13.03
2019-04-06T15:34:06.347Z,14.00
2019-04-06T15:36:53.108Z,14.13
2019-04-06T15:39:26.457Z,14.30
2019-04-06T15:42:02.603Z,13.50
2019-04-06T15:44:44.864Z,13.30
2019-04-06T15:47:20.667Z,12.57
2019-04-06T15:50:07.726Z,11.80
2019-04-06T15:52:41.154Z,13.27
2019-04-06T15:55:17.258Z,12.90
2019-04-06T15:57:53.492Z,12.43
2019-04-06T16:00:40.084Z,13.37
2019-04-06T16:03:22.591Z,14.07
2019-04-06T16:05:57.279Z,12.33
2019-04-06T16:08:31.083Z,13.80
2019-04-06T16:11:13.551Z,13.47
2019-04-06T16:13:49.756Z,14.30
2019-04-06T16:16:26.195Z,13.10
2019-04-06T16:18:59.535Z,12.83
2019-04-06T16:21:46.587Z,14.03
2019-04-06T16:24:33.493Z,14.10
2019-04-06T16:27:07.083Z,15.40
2019-04-06T16:29:44.939Z,16.20
2019-04-06T16:32:31.503Z,14.43
2019-04-06T16:34:55.571Z,16.17
2019-04-06T16:37:25.817Z,15.63
2019-04-06T16:40:02.463Z,15.13
2019-04-06T16:42:48.770Z,17.00
2019-04-06T16:45:19.146Z,15.77
2019-04-06T16:47:52.523Z,16.83
2019-04-06T16:50:34.714Z,16.00
2019-04-06T16:53:21.798Z,17.00
2019-04-06T16:55:52.304Z,17.30
2019-04-06T16:58:28.697Z,17.70
2019-04-06T17:01:01.758Z,17.27
2019-04-06T17:03:50.223Z,18.33
2019-04-06T17:06:20.596Z,18.03
2019-04-06T17:08:50.877Z,17.23
2019-04-06T17:11:33.096Z,17.30
2019-04-06T17:14:21.497Z,17.00
2019-04-06T17:17:04.025Z,17.73
2019-04-06T17:19:43.705Z,19.48
2019-04-06T17:22:17.118Z,18.50
2019-04-06T17:24:47.378Z,17.67
2019-04-06T17:27:30.172Z,17.10
2019-04-06T17:30:00.742Z,15.87
2019-04-06T17:32:38.191Z,17.23
2019-04-06T17:35:11.959Z,18.40
2019-04-06T17:38:00.675Z,18.03
2019-04-06T17:40:30.943Z,20.07
2019-04-06T17:43:01.197Z,19.30
2019-04-06T17:45:36.978Z,18.20
2019-04-06T17:48:23.330Z,18.00
2019-04-06T17:50:56.769Z,16.30
2019-04-06T17:53:33.191Z,18.23
2019-04-06T17:56:03.497Z,18.10
2019-04-06T17:58:42.685Z,16.73
2019-04-06T18:01:15.617Z,16.97
2019-04-06T18:03:59.692Z,18.47
2019-04-06T18:06:47.063Z,16.70
2019-04-06T18:09:35.625Z,17.33
2019-04-06T18:12:18.538Z,18.13
2019-04-06T18:14:47.243Z,16.93
2019-04-06T18:17:15.947Z,17.57
2019-04-06T18:19:44.827Z,18.40
2019-04-06T18:22:13.581Z,18.50
2019-04-06T18:24:42.314Z,15.87
2019-04-06T18:27:11.010Z,17.17
2019-04-06T18:29:40.028Z,16.07
2019-04-06T18:32:10.449Z,16.27
2019-04-06T18:34:39.187Z,17.70
2019-04-06T18:37:22.375Z,15.50
2019-04-06T18:39:53.556Z,16.50
2019-04-06T18:42:23.047Z,15.50
2019-04-06T18:44:51.985Z,16.40
2019-04-06T18:47:20.960Z,15.37
2019-04-06T18:49:49.726Z,17.30
2019-04-06T18:52:18.354Z,15.43
2019-04-06T18:54:47.046Z,16.00
2019-04-06T18:57:16.035Z,15.80
2019-04-06T18:59:44.870Z,16.20
2019-04-06T19:02:14.655Z,17.33
2019-04-06T19:04:43.994Z,16.90
2019-04-06T19:07:12.682Z,17.57
2019-04-06T19:09:41.398Z,17.50
2019-04-06T19:12:10.099Z,15.37
2019-04-06T19:14:38.814Z,17.17
2019-04-06T19:17:07.463Z,17.73
2019-04-06T19:19:36.381Z,16.30
2019-04-06T19:22:05.194Z,16.47
2019-04-06T19:24:33.921Z,16.27
2019-04-06T19:27:02.601Z,17.10
2019-04-06T19:29:31.695Z,15.47
2019-04-06T19:32:00.595Z,18.70
2019-04-06T19:34:29.803Z,18.43
2019-04-06T19:36:59.007Z,18.03
2019-04-06T19:39:27.881Z,18.43
2019-04-06T19:41:56.499Z,17.20
2019-04-06T19:44:25.159Z,16.00
2019-04-06T19:46:53.771Z,15.73
2019-04-06T19:49:22.386Z,16.77
2019-04-06T19:51:51.021Z,17.70
2019-04-06T19:54:19.793Z,18.80
2019-04-06T19:56:48.744Z,18.57
2019-04-06T19:59:17.405Z,18.87
2019-04-06T20:01:46.068Z,17.17
2019-04-06T20:04:15.159Z,17.83
2019-04-06T20:06:43.787Z,18.57
2019-04-06T20:09:13.342Z,17.20
2019-04-06T20:11:42.186Z,18.30
2019-04-06T20:14:10.949Z,17.50
2019-04-06T20:16:39.722Z,18.20
2019-04-06T20:19:08.792Z,18.03
2019-04-06T20:21:39.728Z,17.40
2019-04-06T20:24:08.440Z,18.90
2019-04-06T20:26:37.176Z,19.40
2019-04-06T20:29:06.437Z,18.80
2019-04-06T20:31:35.236Z,16.80
2019-04-06T20:34:03.911Z,18.20
2019-04-06T20:36:32.591Z,17.40
2019-04-06T20:39:01.267Z,18.93
2019-04-06T20:41:29.972Z,18.57
2019-04-06T20:43:59.693Z,19.43
2019-04-06T20:46:28.668Z,19.37
2019-04-06T20:48:57.380Z,17.37
2019-04-06T20:51:26.020Z,19.90
2019-04-06T20:53:55.147Z,18.67
2019-04-06T20:56:23.851Z,19.00
2019-04-06T20:58:52.471Z,19.97
2019-04-06T21:01:21.098Z,17.50
2019-04-06T21:03:59.902Z,19.17
2019-04-06T21:06:20.264Z,17.67
2019-04-06T21:08:49.169Z,18.60
2019-04-06T21:11:17.981Z,21.17
2019-04-06T21:13:46.951Z,20.30
2019-04-06T21:16:15.680Z,19.60
2019-04-06T21:18:44.450Z,19.03
2019-04-06T21:21:13.116Z,18.40
2019-04-06T21:23:42.911Z,18.67
2019-04-06T21:26:11.609Z,17.80
2019-04-06T21:28:40.257Z,17.73
2019-04-06T21:31:09.159Z,18.83
2019-04-06T21:33:37.788Z,17.10
2019-04-06T21:36:06.864Z,19.67
2019-04-06T21:38:35.545Z,19.03
2019-04-06T21:41:05.044Z,17.60
2019-04-06T21:43:34.389Z,18.37
2019-04-06T21:46:03.044Z,19.17
2019-04-06T21:48:31.680Z,17.13
2019-04-06T21:51:00.292Z,18.80
2019-04-06T21:53:29.178Z,19.40
2019-04-06T21:56:04.111Z,18.80
2019-04-06T21:58:28.831Z,20.60
2019-04-06T22:00:59.453Z,17.83
2019-04-06T22:03:28.271Z,19.80
2019-04-06T22:05:56.875Z,19.97
2019-04-06T22:08:25.932Z,18.47
2019-04-06T22:10:54.941Z,19.10
2019-04-06T22:13:24.051Z,18.97
2019-04-06T22:15:52.801Z,17.80
2019-04-06T22:18:22.085Z,18.10
2019-04-06T22:20:51.289Z,18.27
2019-04-06T22:23:20.799Z,18.17
2019-04-06T22:25:49.573Z,18.10
2019-04-06T22:28:18.620Z,18.40
2019-04-06T22:30:47.803Z,18.20
2019-04-06T22:33:16.412Z,18.07
2019-04-06T22:35:45.215Z,17.63
2019-04-06T22:38:14.733Z,18.33
2019-04-06T22:40:43.366Z,17.13
2019-04-06T22:43:12.335Z,17.77
2019-04-06T22:45:41.564Z,17.93
2019-04-06T22:48:10.486Z,18.53
2019-04-06T22:50:39.279Z,16.30
2019-04-06T22:53:07.973Z,18.00
2019-04-06T22:55:56.304Z,18.23
2019-04-06T22:58:25.335Z,18.40
2019-04-06T23:00:55.751Z,16.47
2019-04-06T23:03:43.441Z,16.40
2019-04-06T23:06:14.267Z,17.37
2019-04-06T23:08:42.915Z,16.87
2019-04-06T23:11:11.703Z,17.47
2019-04-06T23:13:40.442Z,17.43
2019-04-06T23:16:09.048Z,17.53
2019-04-06T23:18:37.682Z,17.60
2019-04-06T23:21:06.525Z,18.47
2019-04-06T23:23:35.948Z,17.87
2019-04-06T23:26:05.186Z,19.00
2019-04-06T23:28:34.080Z,18.53
2019-04-06T23:31:02.736Z,17.30
2019-04-06T23:33:31.338Z,17.37
2019-04-06T23:35:59.991Z,18.00
2019-04-06T23:38:28.603Z,19.10
2019-04-06T23:40:57.331Z,18.23
2019-04-06T23:43:26.638Z,17.10
2019-04-06T23:45:55.508Z,17.17
2019-04-06T23:48:24.140Z,17.23
2019-04-06T23:50:52.742Z,17.00
2019-04-06T23:53:21.403Z,18.23
2019-04-06T23:55:50.007Z,19.07
2019-04-06T23:58:18.898Z,19.33
